createdAt,value
2022-07-30T00:02:41.959Z,2.38
2022-07-30T00:05:28.632Z,2.45
2022-07-30T00:08:15.630Z,2.22
2022-07-30T00:11:02.463Z,2.38
2022-07-30T00:13:49.394Z,2.22
2022-07-30T00:16:37.845Z,2.05
2022-07-30T00:19:24.282Z,2.28
2022-07-30T00:22:13.036Z,2.33
2022-07-30T00:24:59.998Z,2.28
2022-07-30T00:27:47.129Z,2.40
2022-07-30T00:30:33.896Z,2.45
2022-07-30T00:33:21.938Z,2.30
2022-07-30T00:36:11.629Z,2.33
2022-07-30T00:38:58.100Z,2.70
2022-07-30T00:41:55.373Z,2.25
2022-07-30T00:44:42.240Z,2.53
2022-07-30T00:47:29.002Z,2.90
2022-07-30T00:50:17.235Z,2.75
2022-07-30T00:53:04.081Z,2.95
2022-07-30T00:55:50.632Z,2.90
2022-07-30T00:58:37.320Z,2.70
2022-07-30T01:01:24.152Z,3.15
2022-07-30T01:04:11.724Z,2.80
2022-07-30T01:07:00.009Z,2.97
2022-07-30T01:09:48.481Z,2.60
2022-07-30T01:12:35.468Z,2.78
2022-07-30T01:15:22.960Z,2.83
2022-07-30T01:18:13.593Z,2.40
2022-07-30T01:21:05.358Z,2.55
2022-07-30T01:23:57.645Z,2.88
2022-07-30T01:26:45.696Z,2.80
2022-07-30T01:29:34.508Z,2.63
2022-07-30T01:32:24.898Z,2.85
2022-07-30T01:35:12.682Z,2.90
2022-07-30T01:38:01.540Z,2.60
2022-07-30T01:40:49.181Z,2.47
2022-07-30T01:43:39.455Z,2.55
2022-07-30T01:46:30.780Z,2.85
2022-07-30T01:49:18.618Z,2.78
2022-07-30T01:52:06.406Z,2.42
2022-07-30T01:54:56.461Z,2.80
2022-07-30T01:57:43.889Z,2.80
2022-07-30T02:00:37.427Z,2.03
2022-07-30T02:03:24.890Z,2.58
2022-07-30T02:06:18.771Z,2.30
2022-07-30T02:09:11.177Z,2.78
2022-07-30T02:12:18.665Z,3.22
2022-07-30T02:15:13.252Z,3.22
2022-07-30T02:18:08.730Z,3.00
2022-07-30T02:21:02.553Z,3.40
2022-07-30T02:23:56.615Z,3.22
2022-07-30T02:26:46.228Z,3.10
2022-07-30T02:29:35.836Z,3.58
2022-07-30T02:32:26.779Z,3.42
2022-07-30T02:35:21.268Z,3.55
2022-07-30T02:38:10.056Z,3.00
2022-07-30T02:41:00.092Z,3.15
2022-07-30T02:43:48.028Z,3.42
2022-07-30T02:46:37.421Z,3.65
2022-07-30T02:49:57.258Z,3.65
2022-07-30T02:52:47.557Z,4.15
2022-07-30T02:55:35.904Z,3.38
2022-07-30T02:58:25.914Z,3.67
2022-07-30T03:01:14.549Z,4.05
2022-07-30T03:04:02.818Z,3.30
2022-07-30T03:06:50.184Z,3.67
2022-07-30T03:09:52.013Z,3.53
2022-07-30T03:12:41.344Z,4.05
2022-07-30T03:15:30.634Z,3.88
2022-07-30T03:18:20.063Z,3.88
2022-07-30T03:21:10.625Z,4.45
2022-07-30T03:24:03.233Z,4.57
2022-07-30T03:26:53.474Z,5.50
2022-07-30T03:29:42.526Z,4.18
2022-07-30T03:32:29.856Z,5.18
2022-07-30T03:35:17.661Z,4.40
2022-07-30T03:38:07.331Z,4.88
2022-07-30T03:40:55.247Z,4.65
2022-07-30T03:43:46.332Z,4.78
2022-07-30T03:46:37.204Z,4.75
2022-07-30T03:49:26.349Z,5.55
2022-07-30T03:52:13.408Z,4.85
2022-07-30T03:55:01.077Z,4.68
2022-07-30T03:58:08.628Z,4.75
2022-07-30T04:00:57.110Z,4.75
2022-07-30T04:03:44.153Z,4.50
2022-07-30T04:06:31.328Z,4.68
2022-07-30T04:09:17.956Z,4.65
2022-07-30T04:12:05.376Z,4.57
2022-07-30T04:14:54.428Z,4.43
2022-07-30T04:17:45.950Z,4.53
2022-07-30T04:20:40.723Z,4.50
2022-07-30T04:23:27.729Z,4.43
2022-07-30T04:26:15.740Z,4.38
2022-07-30T04:29:03.489Z,4.70
2022-07-30T04:31:50.073Z,4.30
2022-07-30T04:35:12.740Z,4.13
2022-07-30T04:38:40.272Z,4.65
2022-07-30T04:41:27.112Z,4.50
2022-07-30T04:44:43.768Z,4.55
2022-07-30T04:47:53.905Z,4.07
2022-07-30T04:50:46.608Z,4.43
2022-07-30T04:53:39.202Z,4.15
2022-07-30T04:56:28.185Z,4.35
2022-07-30T04:59:17.221Z,4.45
2022-07-30T05:02:04.962Z,4.70
2022-07-30T05:04:54.599Z,4.82
2022-07-30T05:07:44.400Z,4.55
2022-07-30T05:10:31.094Z,4.70
2022-07-30T05:13:18.225Z,4.53
2022-07-30T05:16:09.590Z,4.28
2022-07-30T05:18:56.597Z,4.28
2022-07-30T05:21:43.116Z,4.55
2022-07-30T05:24:31.256Z,5.63
2022-07-30T05:27:20.274Z,4.20
2022-07-30T05:30:08.495Z,4.40
2022-07-30T05:33:03.723Z,4.43
2022-07-30T05:36:00.263Z,4.53
2022-07-30T05:38:46.821Z,4.75
2022-07-30T05:41:55.247Z,4.60
2022-07-30T05:45:08.796Z,4.90
2022-07-30T05:47:56.324Z,4.60
2022-07-30T05:50:43.535Z,5.00
2022-07-30T05:53:30.568Z,4.75
2022-07-30T05:56:41.758Z,4.45
2022-07-30T05:59:35.813Z,5.05
2022-07-30T06:02:29.424Z,9.60
2022-07-30T06:05:19.118Z,5.15
2022-07-30T06:08:07.019Z,5.55
2022-07-30T06:10:53.628Z,5.63
2022-07-30T06:13:40.576Z,4.88
2022-07-30T06:16:28.751Z,5.63
2022-07-30T06:19:19.506Z,4.72
2022-07-30T06:22:07.258Z,4.72
2022-07-30T06:24:59.508Z,4.68
2022-07-30T06:27:46.993Z,4.40
2022-07-30T06:30:34.797Z,4.80
2022-07-30T06:33:22.858Z,4.65
2022-07-30T06:36:14.202Z,4.32
2022-07-30T06:39:53.774Z,5.28
2022-07-30T06:42:39.770Z,5.57
2022-07-30T06:45:49.927Z,4.68
2022-07-30T06:48:45.746Z,4.50
2022-07-30T06:51:32.241Z,4.35
2022-07-30T06:54:19.217Z,4.57
2022-07-30T06:57:31.762Z,4.95
2022-07-30T07:00:25.576Z,4.68
2022-07-30T07:03:12.940Z,4.50
2022-07-30T07:06:01.317Z,4.53
2022-07-30T07:08:48.552Z,4.47
2022-07-30T07:11:39.209Z,4.55
2022-07-30T07:14:30.769Z,4.55
2022-07-30T07:17:18.077Z,4.03
2022-07-30T07:20:17.276Z,4.05
2022-07-30T07:23:16.468Z,4.00
2022-07-30T07:26:08.713Z,4.22
2022-07-30T07:28:55.600Z,4.68
2022-07-30T07:32:07.381Z,5.00
2022-07-30T07:34:49.342Z,4.50
2022-07-30T07:37:37.165Z,4.72
2022-07-30T07:40:26.906Z,4.88
2022-07-30T07:43:14.581Z,4.78
2022-07-30T07:46:01.415Z,4.30
2022-07-30T07:48:51.108Z,4.47
2022-07-30T07:51:48.320Z,4.75
2022-07-30T07:54:38.521Z,4.72
2022-07-30T07:57:27.839Z,4.85
2022-07-30T08:00:17.737Z,4.72
2022-07-30T08:03:07.672Z,4.72
2022-07-30T08:06:04.774Z,4.90
2022-07-30T08:09:24.402Z,5.70
2022-07-30T08:12:29.801Z,5.53
2022-07-30T08:15:42.505Z,5.20
2022-07-30T08:18:54.888Z,5.38
2022-07-30T08:21:48.249Z,6.03
2022-07-30T08:24:37.033Z,5.18
2022-07-30T08:27:23.556Z,5.75
2022-07-30T08:30:13.623Z,5.88
2022-07-30T08:33:00.740Z,5.63
2022-07-30T08:35:52.853Z,6.30
2022-07-30T08:38:46.272Z,5.40
2022-07-30T08:41:33.276Z,5.68
2022-07-30T08:44:21.799Z,4.95
2022-07-30T08:47:15.967Z,4.70
2022-07-30T08:50:22.169Z,4.85
2022-07-30T08:53:27.336Z,5.13
2022-07-30T08:56:14.244Z,4.82
2022-07-30T08:59:01.480Z,4.88
2022-07-30T09:01:49.786Z,5.35
2022-07-30T09:04:37.895Z,5.35
2022-07-30T09:07:24.584Z,5.75
2022-07-30T09:10:12.389Z,4.95
2022-07-30T09:12:59.310Z,4.25
2022-07-30T09:15:46.121Z,5.07
2022-07-30T09:18:35.285Z,5.35
2022-07-30T09:21:25.001Z,5.20
2022-07-30T09:24:29.697Z,5.13
2022-07-30T09:27:22.662Z,5.00
2022-07-30T09:30:10.711Z,4.75
2022-07-30T09:33:16.963Z,4.40
2022-07-30T09:36:38.767Z,4.63
2022-07-30T09:39:56.470Z,4.22
2022-07-30T09:43:10.084Z,4.18
2022-07-30T09:46:00.551Z,4.45
2022-07-30T09:48:48.495Z,3.65
2022-07-30T09:51:56.359Z,3.08
2022-07-30T09:54:53.138Z,3.08
2022-07-30T09:57:57.816Z,3.40
2022-07-30T10:00:47.024Z,3.47
2022-07-30T10:03:53.773Z,2.72
2022-07-30T10:06:44.415Z,3.05
2022-07-30T10:09:45.099Z,2.80
2022-07-30T10:12:34.854Z,3.17
2022-07-30T10:15:30.431Z,3.00
2022-07-30T10:18:19.515Z,2.78
2022-07-30T10:21:16.869Z,2.92
2022-07-30T10:24:41.813Z,2.80
2022-07-30T10:27:49.100Z,2.88
2022-07-30T10:30:55.739Z,3.03
2022-07-30T10:33:42.650Z,2.90
2022-07-30T10:36:35.158Z,2.90
2022-07-30T10:39:27.946Z,3.33
2022-07-30T10:42:41.009Z,3.30
2022-07-30T10:45:42.528Z,3.20
2022-07-30T10:48:34.672Z,2.85
2022-07-30T10:51:34.569Z,3.15
2022-07-30T10:54:41.765Z,2.80
2022-07-30T10:57:32.201Z,3.10
2022-07-30T11:00:28.635Z,3.30
2022-07-30T11:03:22.161Z,3.17
2022-07-30T11:06:29.112Z,3.15
2022-07-30T11:09:37.188Z,2.60
2022-07-30T11:12:55.446Z,3.10
2022-07-30T11:15:57.028Z,2.60
2022-07-30T11:19:56.583Z,2.50
2022-07-30T11:22:27.361Z,2.50
2022-07-30T11:25:50.387Z,2.78
2022-07-30T11:28:42.590Z,2.53
2022-07-30T11:31:55.720Z,3.08
2022-07-30T11:34:38.847Z,2.92
2022-07-30T11:37:32.148Z,2.80
2022-07-30T11:40:26.147Z,3.00
2022-07-30T11:43:18.576Z,2.83
2022-07-30T11:46:12.339Z,2.70
2022-07-30T11:49:08.800Z,2.97
2022-07-30T11:51:55.638Z,2.60
2022-07-30T11:54:53.474Z,3.67
2022-07-30T11:57:44.162Z,3.08
2022-07-30T12:00:36.058Z,3.53
2022-07-30T12:03:26.366Z,3.90
2022-07-30T12:06:20.541Z,4.40
2022-07-30T12:09:07.701Z,3.85
2022-07-30T12:12:00.875Z,4.00
2022-07-30T12:14:47.691Z,3.60
2022-07-30T12:17:42.689Z,4.40
2022-07-30T12:20:31.565Z,8.27
2022-07-30T12:23:21.820Z,3.70
2022-07-30T12:26:08.864Z,3.65
2022-07-30T12:29:01.186Z,4.00
2022-07-30T12:31:48.241Z,3.60
2022-07-30T12:34:34.821Z,3.92
2022-07-30T12:37:22.976Z,3.85
2022-07-30T12:40:14.958Z,3.63
2022-07-30T12:43:02.075Z,3.65
2022-07-30T12:45:52.076Z,4.03
2022-07-30T12:48:54.318Z,4.38
2022-07-30T12:51:52.572Z,4.45
2022-07-30T12:54:58.300Z,4.35
2022-07-30T12:58:05.503Z,4.57
2022-07-30T13:00:55.541Z,4.35
2022-07-30T13:03:43.073Z,4.95
2022-07-30T13:06:30.115Z,5.07
2022-07-30T13:09:20.928Z,4.45
2022-07-30T13:12:14.187Z,5.07
2022-07-30T13:15:00.819Z,4.43
2022-07-30T13:17:48.452Z,4.50
2022-07-30T13:20:35.280Z,5.15
2022-07-30T13:23:21.865Z,5.03
2022-07-30T13:26:09.998Z,4.60
2022-07-30T13:29:01.702Z,4.45
2022-07-30T13:31:49.038Z,4.70
2022-07-30T13:34:35.747Z,4.75
2022-07-30T13:37:23.717Z,5.30
2022-07-30T13:40:24.905Z,5.43
2022-07-30T13:43:11.592Z,5.05
2022-07-30T13:46:00.365Z,5.43
2022-07-30T13:48:47.160Z,5.03
2022-07-30T13:51:34.179Z,6.10
2022-07-30T13:54:21.030Z,6.63
2022-07-30T13:57:07.937Z,5.75
2022-07-30T13:59:54.798Z,5.68
2022-07-30T14:02:42.946Z,6.05
2022-07-30T14:05:29.732Z,7.15
2022-07-30T14:08:16.059Z,6.63
2022-07-30T14:11:03.751Z,6.28
2022-07-30T14:13:50.572Z,6.82
2022-07-30T14:16:45.071Z,7.28
2022-07-30T14:19:33.912Z,7.40
2022-07-30T14:22:20.653Z,6.60
2022-07-30T14:25:09.003Z,7.25
2022-07-30T14:27:57.051Z,7.75
2022-07-30T14:30:43.785Z,7.65
2022-07-30T14:33:30.345Z,7.30
2022-07-30T14:36:18.672Z,7.18
2022-07-30T14:39:05.979Z,6.95
2022-07-30T14:41:55.987Z,8.63
2022-07-30T14:44:42.745Z,6.88
2022-07-30T14:47:29.968Z,7.30
2022-07-30T14:50:16.970Z,6.80
2022-07-30T14:53:04.910Z,7.35
2022-07-30T14:55:51.424Z,7.28
2022-07-30T14:58:38.377Z,7.88
2022-07-30T15:01:25.264Z,6.55
2022-07-30T15:04:12.436Z,8.20
2022-07-30T15:06:59.293Z,7.55
2022-07-30T15:09:48.560Z,9.55
2022-07-30T15:12:35.469Z,10.18
2022-07-30T15:15:24.024Z,11.35
2022-07-30T15:18:13.889Z,10.23
2022-07-30T15:21:00.796Z,8.07
2022-07-30T15:23:47.479Z,11.40
2022-07-30T15:26:38.353Z,11.02
2022-07-30T15:29:27.281Z,10.45
2022-07-30T15:32:13.861Z,9.95
2022-07-30T15:35:02.537Z,9.65
2022-07-30T15:37:49.398Z,9.90
2022-07-30T15:40:35.952Z,9.90
2022-07-30T15:43:24.032Z,8.68
2022-07-30T15:46:10.544Z,12.88
2022-07-30T15:48:57.463Z,9.27
2022-07-30T15:51:48.882Z,11.75
2022-07-30T15:54:35.801Z,13.02
2022-07-30T15:57:22.374Z,12.82
2022-07-30T16:00:11.386Z,14.15
2022-07-30T16:03:02.387Z,11.73
2022-07-30T16:05:52.148Z,12.25
2022-07-30T16:08:39.706Z,12.15
2022-07-30T16:11:26.968Z,14.25
2022-07-30T16:14:17.216Z,12.00
2022-07-30T16:17:10.467Z,11.30
2022-07-30T16:20:00.333Z,14.05
2022-07-30T16:22:47.407Z,16.85
2022-07-30T16:25:33.904Z,14.85
2022-07-30T16:28:20.780Z,11.32
2022-07-30T16:31:07.941Z,12.90
2022-07-30T16:33:56.271Z,11.07
2022-07-30T16:36:43.187Z,10.23
2022-07-30T16:39:30.208Z,9.05
2022-07-30T16:42:16.799Z,11.00
2022-07-30T16:45:03.492Z,9.50
2022-07-30T16:47:50.469Z,7.78
2022-07-30T16:50:40.530Z,6.65
2022-07-30T16:53:28.388Z,7.20
2022-07-30T16:56:15.128Z,7.28
2022-07-30T16:59:01.921Z,7.53
2022-07-30T17:01:48.720Z,9.27
2022-07-30T17:04:38.747Z,7.80
2022-07-30T17:07:29.340Z,6.97
2022-07-30T17:10:15.952Z,8.15
2022-07-30T17:13:12.312Z,8.52
2022-07-30T17:15:59.084Z,9.43
2022-07-30T17:18:45.921Z,10.15
2022-07-30T17:21:32.697Z,12.32
2022-07-30T17:24:21.018Z,9.63
2022-07-30T17:27:07.684Z,9.60
2022-07-30T17:29:55.971Z,7.50
2022-07-30T17:32:42.727Z,7.75
2022-07-30T17:35:29.864Z,6.47
2022-07-30T17:38:20.743Z,8.70
2022-07-30T17:41:13.535Z,8.70
2022-07-30T17:44:00.777Z,9.32
2022-07-30T17:46:47.518Z,8.13
2022-07-30T17:49:33.994Z,8.23
2022-07-30T17:52:25.946Z,9.25
2022-07-30T17:55:14.125Z,8.35
2022-07-30T17:58:02.402Z,9.05
2022-07-30T18:00:49.324Z,8.93
2022-07-30T18:03:36.141Z,9.57
2022-07-30T18:06:22.786Z,12.40
2022-07-30T18:09:09.428Z,12.05
2022-07-30T18:11:57.215Z,12.90
2022-07-30T18:14:48.348Z,9.80
2022-07-30T18:17:35.400Z,10.07
2022-07-30T18:20:21.934Z,9.88
2022-07-30T18:23:14.052Z,8.38
2022-07-30T18:26:02.501Z,10.38
2022-07-30T18:28:50.750Z,10.70
2022-07-30T18:31:38.928Z,9.75
2022-07-30T18:34:25.440Z,9.60
2022-07-30T18:37:12.216Z,9.40
2022-07-30T18:39:59.111Z,10.18
2022-07-30T18:42:48.085Z,10.10
2022-07-30T18:45:37.976Z,10.68
2022-07-30T18:48:26.685Z,9.60
2022-07-30T18:51:14.131Z,10.63
2022-07-30T18:54:01.473Z,9.93
2022-07-30T18:56:48.172Z,9.95
2022-07-30T18:59:38.073Z,10.07
2022-07-30T19:02:25.539Z,10.15
2022-07-30T19:05:13.628Z,10.45
2022-07-30T19:08:00.481Z,9.85
2022-07-30T19:10:47.016Z,10.75
2022-07-30T19:13:33.845Z,10.48
2022-07-30T19:16:21.035Z,11.48
2022-07-30T19:19:07.708Z,8.98
2022-07-30T19:21:55.969Z,11.90
2022-07-30T19:24:43.467Z,11.38
2022-07-30T19:27:29.996Z,11.75
2022-07-30T19:30:16.764Z,11.55
2022-07-30T19:33:05.152Z,9.70
2022-07-30T19:35:51.692Z,10.05
2022-07-30T19:38:42.360Z,10.10
2022-07-30T19:41:28.913Z,9.90
2022-07-30T19:44:18.709Z,10.18
2022-07-30T19:47:05.311Z,11.73
2022-07-30T19:49:54.139Z,10.77
2022-07-30T19:52:51.354Z,9.50
2022-07-30T19:55:39.924Z,10.55
2022-07-30T19:58:29.029Z,9.07
2022-07-30T20:01:18.182Z,8.70
2022-07-30T20:04:05.493Z,8.02
2022-07-30T20:06:53.910Z,6.35
2022-07-30T20:09:42.907Z,7.22
2022-07-30T20:12:32.318Z,5.63
2022-07-30T20:15:19.132Z,5.65
2022-07-30T20:18:05.937Z,4.75
2022-07-30T20:20:58.134Z,4.05
2022-07-30T20:23:45.553Z,3.78
2022-07-30T20:26:33.526Z,4.28
2022-07-30T20:29:21.641Z,4.07
2022-07-30T20:32:09.268Z,3.65
2022-07-30T20:34:56.889Z,3.45
2022-07-30T20:37:55.318Z,3.38
2022-07-30T20:40:42.671Z,3.22
2022-07-30T20:43:30.901Z,3.53
2022-07-30T20:46:19.221Z,4.10
2022-07-30T20:49:06.337Z,3.97
2022-07-30T20:51:53.433Z,4.82
2022-07-30T20:54:45.101Z,4.20
2022-07-30T20:57:57.050Z,4.72
2022-07-30T21:00:41.786Z,5.40
2022-07-30T21:03:30.148Z,5.70
2022-07-30T21:06:17.523Z,5.97
2022-07-30T21:09:04.178Z,5.82
2022-07-30T21:11:51.717Z,4.38
2022-07-30T21:14:38.404Z,5.50
2022-07-30T21:17:25.236Z,6.00
2022-07-30T21:20:13.404Z,5.65
2022-07-30T21:23:05.864Z,8.02
2022-07-30T21:26:00.558Z,9.02
2022-07-30T21:28:49.701Z,6.10
2022-07-30T21:32:00.405Z,7.80
2022-07-30T21:34:46.329Z,8.25
2022-07-30T21:37:36.606Z,8.48
2022-07-30T21:40:24.825Z,6.57
2022-07-30T21:43:11.619Z,7.25
2022-07-30T21:45:58.254Z,6.22
2022-07-30T21:48:45.039Z,5.80
2022-07-30T21:51:31.795Z,8.02
2022-07-30T21:54:29.357Z,7.38
2022-07-30T21:57:26.228Z,8.25
2022-07-30T22:00:18.509Z,6.07
2022-07-30T22:03:12.669Z,6.57
2022-07-30T22:06:12.833Z,6.10
2022-07-30T22:08:59.613Z,8.75
2022-07-30T22:11:51.425Z,8.38
2022-07-30T22:14:39.083Z,8.05
2022-07-30T22:17:36.721Z,5.80
2022-07-30T22:20:23.605Z,7.53
2022-07-30T22:23:10.712Z,7.75
2022-07-30T22:26:00.310Z,7.07
2022-07-30T22:28:52.631Z,7.18
2022-07-30T22:31:41.368Z,8.57
2022-07-30T22:34:28.012Z,6.45
2022-07-30T22:37:17.357Z,8.98
2022-07-30T22:40:07.861Z,9.55
2022-07-30T22:42:54.476Z,9.30
2022-07-30T22:45:48.449Z,9.48
2022-07-30T22:48:36.924Z,9.75
2022-07-30T22:51:24.637Z,9.02
2022-07-30T22:54:31.395Z,9.63
2022-07-30T22:57:18.423Z,9.90
2022-07-30T23:00:13.674Z,10.18
2022-07-30T23:03:02.721Z,8.32
2022-07-30T23:05:55.043Z,8.60
2022-07-30T23:08:43.429Z,7.50
2022-07-30T23:11:34.131Z,8.30
2022-07-30T23:14:24.413Z,6.70
2022-07-30T23:17:12.817Z,7.90
2022-07-30T23:20:00.734Z,9.07
2022-07-30T23:22:47.716Z,7.57
2022-07-30T23:25:38.974Z,7.43
2022-07-30T23:28:26.317Z,8.77
2022-07-30T23:31:13.069Z,7.55
2022-07-30T23:33:59.873Z,8.25
2022-07-30T23:36:47.822Z,8.75
2022-07-30T23:39:34.440Z,7.80
2022-07-30T23:42:21.251Z,6.95
2022-07-30T23:45:08.572Z,7.22
2022-07-30T23:48:02.553Z,6.90
2022-07-30T23:50:50.991Z,8.55
2022-07-30T23:53:38.829Z,8.55
2022-07-30T23:56:25.689Z,8.27
2022-07-30T23:59:12.463Z,7.90
